GOJDT EGPJ-EGCJ
Flight info
| Callsign | GOJDT |
|---|---|
| Flight time | 1h 27m |
| Altitude | 3000 |
| Route | NORTH BERWICK/ HALTWHISTLE/ HARROGATE |
| Aircraft | C337/L-G/L |
Departure
| Time | 2026-04-12 09:42 |
|---|---|
| Airport | Fife Airport (EGPJ) |
Arrival
| Time | 2026-04-12 11:09 |
|---|---|
| Airport | Sherburn-in-Elmet Airfield (EGCJ) |
| Time | Latitude | Longitude | Altitude | Speed | Heading |
|---|---|---|---|---|---|
| 2026-04-12 09:39 | 56.18350 | -3.21707 | 401 ft | 0 kts | 68° |
| 2026-04-12 09:40 | 56.18350 | -3.21706 | 401 ft | 1 kts | 67° |
| 2026-04-12 09:41 | 56.18403 | -3.21635 | 406 ft | 15 kts | 48° |
| 2026-04-12 09:41 | 56.18462 | -3.21557 | 409 ft | 11 kts | 323° |
| 2026-04-12 09:41 | 56.18459 | -3.21611 | 406 ft | 11 kts | 239° |
| 2026-04-12 09:41 | 56.18309 | -3.22103 | 401 ft | 74 kts | 241° |
| 2026-04-12 09:42 | 56.18148 | -3.22684 | 584 ft | 81 kts | 242° |
| 2026-04-12 09:42 | 56.17878 | -3.23584 | 1068 ft | 79 kts | 234° |
| 2026-04-12 09:42 | 56.17300 | -3.23680 | 1451 ft | 114 kts | 163° |
| 2026-04-12 09:43 | 56.16825 | -3.17883 | 1769 ft | 181 kts | 101° |
| 2026-04-12 09:43 | 56.16753 | -3.15633 | 1766 ft | 177 kts | 111° |
| 2026-04-12 09:43 | 56.16318 | -3.13676 | 1769 ft | 169 kts | 129° |
| 2026-04-12 09:44 | 56.15782 | -3.11762 | 1767 ft | 171 kts | 127° |
| 2026-04-12 09:44 | 56.15292 | -3.09845 | 1767 ft | 171 kts | 126° |
| 2026-04-12 09:44 | 56.14808 | -3.07905 | 1757 ft | 171 kts | 125° |
| 2026-04-12 09:44 | 56.14323 | -3.05961 | 1755 ft | 171 kts | 125° |
| 2026-04-12 09:45 | 56.13838 | -3.04020 | 1756 ft | 171 kts | 125° |
| 2026-04-12 09:45 | 56.13352 | -3.02081 | 1757 ft | 171 kts | 125° |
| 2026-04-12 09:45 | 56.12864 | -3.00135 | 1755 ft | 171 kts | 125° |
| 2026-04-12 09:45 | 56.12378 | -2.98195 | 1756 ft | 170 kts | 125° |
| 2026-04-12 09:46 | 56.11892 | -2.96263 | 1757 ft | 170 kts | 125° |
| 2026-04-12 09:46 | 56.11409 | -2.94339 | 1759 ft | 169 kts | 125° |
| 2026-04-12 09:46 | 56.10928 | -2.92428 | 1755 ft | 168 kts | 125° |
| 2026-04-12 09:46 | 56.10447 | -2.90520 | 1761 ft | 168 kts | 125° |
| 2026-04-12 09:47 | 56.09968 | -2.88616 | 1820 ft | 166 kts | 125° |
| 2026-04-12 09:47 | 56.09494 | -2.86737 | 1925 ft | 166 kts | 126° |
| 2026-04-12 09:47 | 56.09018 | -2.84854 | 2039 ft | 165 kts | 126° |
| 2026-04-12 09:47 | 56.08546 | -2.82983 | 2155 ft | 165 kts | 126° |
| 2026-04-12 09:48 | 56.08076 | -2.81129 | 2268 ft | 166 kts | 126° |
| 2026-04-12 09:48 | 56.07591 | -2.79216 | 2388 ft | 167 kts | 126° |
| 2026-04-12 09:48 | 56.07117 | -2.77344 | 2488 ft | 167 kts | 126° |
| 2026-04-12 09:48 | 56.06631 | -2.75422 | 2599 ft | 167 kts | 126° |
| 2026-04-12 09:49 | 56.06121 | -2.73611 | 2720 ft | 160 kts | 138° |
| 2026-04-12 09:49 | 56.05331 | -2.72378 | 2850 ft | 145 kts | 164° |
| 2026-04-12 09:49 | 56.04424 | -2.71833 | 2963 ft | 133 kts | 184° |
| 2026-04-12 09:49 | 56.03510 | -2.71626 | 3094 ft | 133 kts | 184° |
| 2026-04-12 09:50 | 56.02596 | -2.71394 | 3205 ft | 134 kts | 184° |
| 2026-04-12 09:50 | 56.01657 | -2.71164 | 3211 ft | 138 kts | 183° |
| 2026-04-12 09:50 | 56.00698 | -2.70930 | 3212 ft | 140 kts | 183° |
| 2026-04-12 09:50 | 55.99733 | -2.70692 | 3216 ft | 140 kts | 183° |
| 2026-04-12 09:51 | 55.98770 | -2.70456 | 3211 ft | 140 kts | 183° |
| 2026-04-12 09:51 | 55.97800 | -2.70219 | 3218 ft | 141 kts | 183° |
| 2026-04-12 09:51 | 55.96825 | -2.69981 | 3223 ft | 142 kts | 183° |
| 2026-04-12 09:51 | 55.95845 | -2.69743 | 3224 ft | 143 kts | 183° |
| 2026-04-12 09:52 | 55.94862 | -2.69503 | 3226 ft | 143 kts | 183° |
| 2026-04-12 09:52 | 55.93879 | -2.69262 | 3224 ft | 142 kts | 183° |
| 2026-04-12 09:52 | 55.92901 | -2.69023 | 3228 ft | 142 kts | 183° |
| 2026-04-12 09:52 | 55.91921 | -2.68785 | 3226 ft | 141 kts | 183° |
| 2026-04-12 09:53 | 55.90953 | -2.68551 | 3223 ft | 140 kts | 183° |
| 2026-04-12 09:53 | 55.89992 | -2.68313 | 3220 ft | 138 kts | 183° |
| 2026-04-12 09:53 | 55.89051 | -2.68090 | 3219 ft | 139 kts | 184° |
| 2026-04-12 09:53 | 55.88093 | -2.67855 | 3219 ft | 139 kts | 183° |
| 2026-04-12 09:54 | 55.87134 | -2.67620 | 3223 ft | 139 kts | 183° |
| 2026-04-12 09:54 | 55.86174 | -2.67390 | 3219 ft | 140 kts | 184° |
| 2026-04-12 09:54 | 55.85208 | -2.67159 | 3216 ft | 140 kts | 183° |
| 2026-04-12 09:54 | 55.84236 | -2.66918 | 3223 ft | 141 kts | 183° |
| 2026-04-12 09:55 | 55.83256 | -2.66687 | 3221 ft | 142 kts | 183° |
| 2026-04-12 09:55 | 55.82277 | -2.66446 | 3223 ft | 142 kts | 183° |
| 2026-04-12 09:55 | 55.81306 | -2.66211 | 3221 ft | 142 kts | 183° |
| 2026-04-12 09:55 | 55.80327 | -2.65973 | 3230 ft | 142 kts | 183° |
| 2026-04-12 09:56 | 55.79343 | -2.65737 | 3231 ft | 142 kts | 183° |
| 2026-04-12 09:56 | 55.78365 | -2.65498 | 3225 ft | 141 kts | 183° |
| 2026-04-12 09:56 | 55.77400 | -2.65266 | 3231 ft | 140 kts | 183° |
| 2026-04-12 09:56 | 55.76434 | -2.65030 | 3228 ft | 139 kts | 184° |
| 2026-04-12 09:57 | 55.75471 | -2.64800 | 3238 ft | 141 kts | 183° |
| 2026-04-12 09:57 | 55.74496 | -2.64571 | 3227 ft | 140 kts | 183° |
| 2026-04-12 09:57 | 55.73533 | -2.64335 | 3230 ft | 140 kts | 183° |
| 2026-04-12 09:57 | 55.72572 | -2.64102 | 3231 ft | 139 kts | 184° |
| 2026-04-12 09:58 | 55.71616 | -2.63871 | 3234 ft | 139 kts | 184° |
| 2026-04-12 09:58 | 55.70650 | -2.63640 | 3231 ft | 140 kts | 184° |
| 2026-04-12 09:58 | 55.69684 | -2.63406 | 3235 ft | 139 kts | 184° |
| 2026-04-12 09:58 | 55.68727 | -2.63178 | 3233 ft | 138 kts | 184° |
| 2026-04-12 09:59 | 55.67772 | -2.62948 | 3240 ft | 139 kts | 184° |
| 2026-04-12 09:59 | 55.66808 | -2.62718 | 3238 ft | 140 kts | 184° |
| 2026-04-12 09:59 | 55.65854 | -2.62484 | 3247 ft | 138 kts | 184° |
| 2026-04-12 09:59 | 55.64904 | -2.62261 | 3249 ft | 139 kts | 184° |
| 2026-04-12 10:00 | 55.63953 | -2.62032 | 3245 ft | 139 kts | 184° |
| 2026-04-12 10:00 | 55.62994 | -2.61801 | 3243 ft | 139 kts | 184° |
| 2026-04-12 10:00 | 55.62039 | -2.61573 | 3249 ft | 139 kts | 184° |
| 2026-04-12 10:00 | 55.61083 | -2.61342 | 3250 ft | 139 kts | 184° |
| 2026-04-12 10:01 | 55.60118 | -2.61113 | 3253 ft | 140 kts | 184° |
| 2026-04-12 10:01 | 55.59156 | -2.60883 | 3249 ft | 139 kts | 184° |
| 2026-04-12 10:01 | 55.58195 | -2.60653 | 3255 ft | 139 kts | 184° |
| 2026-04-12 10:01 | 55.57233 | -2.60423 | 3254 ft | 140 kts | 184° |
| 2026-04-12 10:02 | 55.56268 | -2.60192 | 3257 ft | 140 kts | 184° |
| 2026-04-12 10:02 | 55.55305 | -2.59962 | 3252 ft | 139 kts | 184° |
| 2026-04-12 10:02 | 55.54345 | -2.59733 | 3257 ft | 139 kts | 184° |
| 2026-04-12 10:02 | 55.53391 | -2.59505 | 3257 ft | 138 kts | 184° |
| 2026-04-12 10:03 | 55.52443 | -2.59279 | 3256 ft | 137 kts | 183° |
| 2026-04-12 10:03 | 55.51509 | -2.59054 | 3266 ft | 134 kts | 184° |
| 2026-04-12 10:03 | 55.50584 | -2.58835 | 3264 ft | 134 kts | 184° |
| 2026-04-12 10:03 | 55.49655 | -2.58615 | 3262 ft | 134 kts | 184° |
| 2026-04-12 10:04 | 55.48731 | -2.58396 | 3267 ft | 134 kts | 184° |
| 2026-04-12 10:04 | 55.47816 | -2.58176 | 3264 ft | 131 kts | 184° |
| 2026-04-12 10:04 | 55.46910 | -2.57963 | 3259 ft | 132 kts | 184° |
| 2026-04-12 10:04 | 55.46002 | -2.57746 | 3262 ft | 132 kts | 184° |
| 2026-04-12 10:05 | 55.45090 | -2.57529 | 3275 ft | 134 kts | 185° |
| 2026-04-12 10:05 | 55.44172 | -2.57313 | 3279 ft | 135 kts | 184° |
| 2026-04-12 10:05 | 55.43236 | -2.57093 | 3280 ft | 136 kts | 184° |
| 2026-04-12 10:05 | 55.42297 | -2.56868 | 3288 ft | 136 kts | 184° |
| 2026-04-12 10:06 | 55.41363 | -2.56646 | 3283 ft | 135 kts | 184° |
| 2026-04-12 10:06 | 55.40442 | -2.56424 | 3285 ft | 132 kts | 184° |
| 2026-04-12 10:06 | 55.39524 | -2.56210 | 3288 ft | 134 kts | 184° |
| 2026-04-12 10:06 | 55.38593 | -2.55988 | 3293 ft | 136 kts | 184° |
| 2026-04-12 10:07 | 55.37652 | -2.55766 | 3288 ft | 135 kts | 184° |
| 2026-04-12 10:07 | 55.36717 | -2.55547 | 3295 ft | 136 kts | 184° |
| 2026-04-12 10:07 | 55.35771 | -2.55326 | 3295 ft | 137 kts | 184° |
| 2026-04-12 10:07 | 55.34837 | -2.55104 | 3303 ft | 138 kts | 184° |
| 2026-04-12 10:08 | 55.33876 | -2.54876 | 3300 ft | 140 kts | 184° |
| 2026-04-12 10:08 | 55.32920 | -2.54648 | 3308 ft | 138 kts | 184° |
| 2026-04-12 10:08 | 55.31965 | -2.54425 | 3304 ft | 138 kts | 184° |
| 2026-04-12 10:08 | 55.31014 | -2.54198 | 3300 ft | 137 kts | 184° |
| 2026-04-12 10:09 | 55.30058 | -2.53975 | 3310 ft | 141 kts | 184° |
| 2026-04-12 10:09 | 55.29070 | -2.53744 | 3316 ft | 146 kts | 183° |
| 2026-04-12 10:09 | 55.28049 | -2.53506 | 3308 ft | 148 kts | 183° |
| 2026-04-12 10:09 | 55.27045 | -2.53261 | 3302 ft | 142 kts | 183° |
| 2026-04-12 10:10 | 55.26072 | -2.53032 | 3306 ft | 141 kts | 184° |
| 2026-04-12 10:10 | 55.25098 | -2.52805 | 3301 ft | 140 kts | 184° |
| 2026-04-12 10:10 | 55.24140 | -2.52578 | 3302 ft | 138 kts | 184° |
| 2026-04-12 10:10 | 55.23185 | -2.52358 | 3303 ft | 139 kts | 184° |
| 2026-04-12 10:11 | 55.22226 | -2.52133 | 3303 ft | 139 kts | 184° |
| 2026-04-12 10:11 | 55.21263 | -2.51907 | 3318 ft | 141 kts | 184° |
| 2026-04-12 10:11 | 55.20278 | -2.51677 | 3319 ft | 144 kts | 183° |
| 2026-04-12 10:11 | 55.19286 | -2.51445 | 3318 ft | 144 kts | 183° |
| 2026-04-12 10:12 | 55.18312 | -2.51213 | 3311 ft | 143 kts | 184° |
| 2026-04-12 10:12 | 55.17336 | -2.50984 | 3309 ft | 140 kts | 184° |
| 2026-04-12 10:12 | 55.16376 | -2.50757 | 3309 ft | 137 kts | 184° |
| 2026-04-12 10:12 | 55.15450 | -2.50539 | 3309 ft | 131 kts | 184° |
| 2026-04-12 10:13 | 55.14558 | -2.50331 | 3318 ft | 129 kts | 185° |
| 2026-04-12 10:13 | 55.13655 | -2.50125 | 3314 ft | 132 kts | 184° |
| 2026-04-12 10:13 | 55.12730 | -2.49910 | 3317 ft | 136 kts | 184° |
| 2026-04-12 10:13 | 55.11782 | -2.49689 | 3323 ft | 139 kts | 184° |
| 2026-04-12 10:14 | 55.10821 | -2.49465 | 3324 ft | 140 kts | 184° |
| 2026-04-12 10:14 | 55.09866 | -2.49240 | 3325 ft | 140 kts | 184° |
| 2026-04-12 10:14 | 55.08900 | -2.49016 | 3330 ft | 141 kts | 184° |
| 2026-04-12 10:14 | 55.07920 | -2.48788 | 3325 ft | 142 kts | 184° |
| 2026-04-12 10:15 | 55.06940 | -2.48559 | 3324 ft | 142 kts | 184° |
| 2026-04-12 10:15 | 55.05957 | -2.48328 | 3324 ft | 142 kts | 184° |
| 2026-04-12 10:15 | 55.04983 | -2.48102 | 3321 ft | 141 kts | 184° |
| 2026-04-12 10:15 | 55.04013 | -2.47877 | 3320 ft | 140 kts | 184° |
| 2026-04-12 10:16 | 55.03047 | -2.47650 | 3322 ft | 140 kts | 184° |
| 2026-04-12 10:16 | 55.02076 | -2.47427 | 3320 ft | 141 kts | 184° |
| 2026-04-12 10:16 | 55.01100 | -2.47200 | 3322 ft | 141 kts | 184° |
| 2026-04-12 10:16 | 55.00130 | -2.46973 | 3318 ft | 140 kts | 184° |
| 2026-04-12 10:17 | 54.99169 | -2.46749 | 3319 ft | 139 kts | 184° |
| 2026-04-12 10:17 | 54.98216 | -2.46529 | 3321 ft | 138 kts | 184° |
| 2026-04-12 10:17 | 54.97264 | -2.46310 | 3321 ft | 138 kts | 184° |
| 2026-04-12 10:17 | 54.96335 | -2.45723 | 3315 ft | 150 kts | 163° |
| 2026-04-12 10:18 | 54.95438 | -2.44805 | 3313 ft | 148 kts | 164° |
| 2026-04-12 10:18 | 54.94552 | -2.43939 | 3310 ft | 147 kts | 165° |
| 2026-04-12 10:18 | 54.93664 | -2.43074 | 3317 ft | 146 kts | 165° |
| 2026-04-12 10:18 | 54.92771 | -2.42204 | 3317 ft | 148 kts | 164° |
| 2026-04-12 10:19 | 54.91874 | -2.41329 | 3318 ft | 148 kts | 165° |
| 2026-04-12 10:19 | 54.90979 | -2.40456 | 3318 ft | 147 kts | 164° |
| 2026-04-12 10:19 | 54.90091 | -2.39592 | 3321 ft | 145 kts | 165° |
| 2026-04-12 10:19 | 54.89215 | -2.38736 | 3322 ft | 144 kts | 165° |
| 2026-04-12 10:20 | 54.88345 | -2.37891 | 3322 ft | 143 kts | 165° |
| 2026-04-12 10:20 | 54.87474 | -2.37046 | 3320 ft | 144 kts | 165° |
| 2026-04-12 10:20 | 54.86602 | -2.36202 | 3323 ft | 146 kts | 164° |
| 2026-04-12 10:20 | 54.85713 | -2.35334 | 3326 ft | 146 kts | 164° |
| 2026-04-12 10:21 | 54.84830 | -2.34476 | 3331 ft | 146 kts | 164° |
| 2026-04-12 10:21 | 54.83963 | -2.33626 | 3326 ft | 140 kts | 165° |
| 2026-04-12 10:21 | 54.83123 | -2.32819 | 3331 ft | 137 kts | 165° |
| 2026-04-12 10:21 | 54.82283 | -2.32008 | 3337 ft | 140 kts | 165° |
| 2026-04-12 10:22 | 54.81415 | -2.31172 | 3341 ft | 144 kts | 165° |
| 2026-04-12 10:22 | 54.80530 | -2.30317 | 3347 ft | 147 kts | 164° |
| 2026-04-12 10:22 | 54.79632 | -2.29445 | 3354 ft | 149 kts | 164° |
| 2026-04-12 10:22 | 54.78715 | -2.28557 | 3354 ft | 153 kts | 163° |
| 2026-04-12 10:23 | 54.77781 | -2.27651 | 3346 ft | 153 kts | 162° |
| 2026-04-12 10:23 | 54.76858 | -2.26755 | 3355 ft | 151 kts | 163° |
| 2026-04-12 10:23 | 54.75938 | -2.25867 | 3355 ft | 152 kts | 162° |
| 2026-04-12 10:23 | 54.75021 | -2.24980 | 3355 ft | 151 kts | 162° |
| 2026-04-12 10:24 | 54.74105 | -2.24094 | 3360 ft | 151 kts | 163° |
| 2026-04-12 10:24 | 54.73188 | -2.23214 | 3361 ft | 151 kts | 163° |
| 2026-04-12 10:24 | 54.72270 | -2.22329 | 3359 ft | 151 kts | 162° |
| 2026-04-12 10:24 | 54.71358 | -2.21449 | 3360 ft | 149 kts | 162° |
| 2026-04-12 10:25 | 54.70458 | -2.20580 | 3356 ft | 148 kts | 163° |
| 2026-04-12 10:25 | 54.69541 | -2.19704 | 3365 ft | 153 kts | 162° |
| 2026-04-12 10:25 | 54.68605 | -2.18805 | 3366 ft | 155 kts | 162° |
| 2026-04-12 10:25 | 54.67663 | -2.17896 | 3371 ft | 155 kts | 162° |
| 2026-04-12 10:26 | 54.66712 | -2.16981 | 3373 ft | 157 kts | 162° |
| 2026-04-12 10:26 | 54.65757 | -2.16062 | 3370 ft | 157 kts | 162° |
| 2026-04-12 10:26 | 54.64817 | -2.15162 | 3375 ft | 157 kts | 162° |
| 2026-04-12 10:26 | 54.63868 | -2.14251 | 3366 ft | 155 kts | 162° |
| 2026-04-12 10:27 | 54.62945 | -2.13357 | 3332 ft | 147 kts | 163° |
| 2026-04-12 10:27 | 54.62062 | -2.12511 | 3204 ft | 144 kts | 163° |
| 2026-04-12 10:27 | 54.61189 | -2.11678 | 3072 ft | 143 kts | 163° |
| 2026-04-12 10:27 | 54.60327 | -2.10852 | 2990 ft | 141 kts | 163° |
| 2026-04-12 10:28 | 54.59467 | -2.10034 | 2984 ft | 142 kts | 163° |
| 2026-04-12 10:28 | 54.58592 | -2.09200 | 2985 ft | 145 kts | 162° |
| 2026-04-12 10:28 | 54.57705 | -2.08352 | 2993 ft | 147 kts | 162° |
| 2026-04-12 10:28 | 54.56806 | -2.07493 | 3000 ft | 148 kts | 162° |
| 2026-04-12 10:29 | 54.55902 | -2.06628 | 2994 ft | 149 kts | 162° |
| 2026-04-12 10:29 | 54.55002 | -2.05765 | 3000 ft | 147 kts | 162° |
| 2026-04-12 10:29 | 54.54409 | -2.05198 | 2994 ft | 147 kts | 162° |
| 2026-04-12 10:29 | 54.53516 | -2.04348 | 3001 ft | 147 kts | 162° |
| 2026-04-12 10:30 | 54.52618 | -2.03494 | 3003 ft | 147 kts | 162° |
| 2026-04-12 10:30 | 54.51720 | -2.02639 | 3006 ft | 148 kts | 162° |
| 2026-04-12 10:30 | 54.50819 | -2.01778 | 3001 ft | 148 kts | 162° |
| 2026-04-12 10:30 | 54.49923 | -2.00926 | 3003 ft | 146 kts | 162° |
| 2026-04-12 10:31 | 54.49034 | -2.00079 | 3002 ft | 145 kts | 162° |
| 2026-04-12 10:31 | 54.48147 | -1.99237 | 3005 ft | 146 kts | 162° |
| 2026-04-12 10:31 | 54.47256 | -1.98389 | 3013 ft | 147 kts | 162° |
| 2026-04-12 10:31 | 54.46369 | -1.97548 | 3014 ft | 148 kts | 161° |
| 2026-04-12 10:32 | 54.45467 | -1.96692 | 3021 ft | 149 kts | 162° |
| 2026-04-12 10:32 | 54.44556 | -1.95829 | 3025 ft | 150 kts | 162° |
| 2026-04-12 10:32 | 54.43639 | -1.94961 | 3022 ft | 150 kts | 162° |
| 2026-04-12 10:32 | 54.42730 | -1.94094 | 3026 ft | 149 kts | 162° |
| 2026-04-12 10:33 | 54.41825 | -1.93235 | 3024 ft | 149 kts | 163° |
| 2026-04-12 10:33 | 54.40923 | -1.92363 | 3026 ft | 151 kts | 158° |
| 2026-04-12 10:33 | 54.40203 | -1.90925 | 3020 ft | 165 kts | 131° |
| 2026-04-12 10:33 | 54.39639 | -1.89317 | 2970 ft | 152 kts | 134° |
| 2026-04-12 10:34 | 54.39073 | -1.87795 | 2883 ft | 151 kts | 135° |
| 2026-04-12 10:34 | 54.38509 | -1.86279 | 2759 ft | 151 kts | 134° |
| 2026-04-12 10:34 | 54.37951 | -1.84760 | 2602 ft | 150 kts | 134° |
| 2026-04-12 10:34 | 54.37392 | -1.83251 | 2503 ft | 150 kts | 134° |
| 2026-04-12 10:35 | 54.36833 | -1.81736 | 2426 ft | 150 kts | 134° |
| 2026-04-12 10:35 | 54.36271 | -1.80220 | 2325 ft | 151 kts | 134° |
| 2026-04-12 10:35 | 54.35713 | -1.78716 | 2223 ft | 151 kts | 134° |
| 2026-04-12 10:35 | 54.35149 | -1.77196 | 2094 ft | 151 kts | 133° |
| 2026-04-12 10:36 | 54.34591 | -1.75679 | 1969 ft | 150 kts | 133° |
| 2026-04-12 10:36 | 54.34026 | -1.74174 | 1863 ft | 150 kts | 134° |
| 2026-04-12 10:36 | 54.33468 | -1.72668 | 1787 ft | 150 kts | 133° |
| 2026-04-12 10:36 | 54.32903 | -1.71140 | 1688 ft | 150 kts | 131° |
| 2026-04-12 10:37 | 54.32507 | -1.69471 | 1567 ft | 156 kts | 117° |
| 2026-04-12 10:37 | 54.32161 | -1.67717 | 1459 ft | 155 kts | 118° |
| 2026-04-12 10:37 | 54.31813 | -1.65967 | 1405 ft | 155 kts | 117° |
| 2026-04-12 10:37 | 54.31467 | -1.64224 | 1355 ft | 154 kts | 118° |
| 2026-04-12 10:38 | 54.31135 | -1.62483 | 1267 ft | 153 kts | 117° |
| 2026-04-12 10:38 | 54.30798 | -1.60751 | 1161 ft | 153 kts | 118° |
| 2026-04-12 10:38 | 54.30452 | -1.59034 | 1079 ft | 149 kts | 117° |
| 2026-04-12 10:38 | 54.30118 | -1.57409 | 1061 ft | 141 kts | 119° |
| 2026-04-12 10:39 | 54.29782 | -1.55888 | 1105 ft | 134 kts | 120° |
| 2026-04-12 10:39 | 54.29447 | -1.54391 | 1135 ft | 131 kts | 121° |
| 2026-04-12 10:39 | 54.29090 | -1.52971 | 1167 ft | 130 kts | 126° |
| 2026-04-12 10:39 | 54.28715 | -1.51544 | 1173 ft | 132 kts | 124° |
| 2026-04-12 10:40 | 54.28336 | -1.50131 | 1239 ft | 129 kts | 128° |
| 2026-04-12 10:40 | 54.27897 | -1.48768 | 1242 ft | 133 kts | 130° |
| 2026-04-12 10:40 | 54.27447 | -1.47366 | 1222 ft | 136 kts | 131° |
| 2026-04-12 10:40 | 54.26965 | -1.45947 | 1200 ft | 141 kts | 127° |
| 2026-04-12 10:41 | 54.26513 | -1.44451 | 1184 ft | 141 kts | 129° |
| 2026-04-12 10:41 | 54.26016 | -1.42988 | 1167 ft | 142 kts | 131° |
| 2026-04-12 10:41 | 54.25495 | -1.41608 | 1090 ft | 137 kts | 134° |
| 2026-04-12 10:41 | 54.24969 | -1.40378 | 1021 ft | 120 kts | 137° |
| 2026-04-12 10:42 | 54.24473 | -1.39276 | 980 ft | 114 kts | 138° |
| 2026-04-12 10:42 | 54.23974 | -1.38310 | 1015 ft | 106 kts | 143° |
| 2026-04-12 10:42 | 54.23462 | -1.37420 | 866 ft | 108 kts | 145° |
| 2026-04-12 10:42 | 54.22920 | -1.36591 | 665 ft | 95 kts | 166° |
| 2026-04-12 10:43 | 54.21994 | -1.37145 | 355 ft | 68 kts | 214° |
| 2026-04-12 10:43 | 54.21562 | -1.37473 | 212 ft | 68 kts | 208° |
| 2026-04-12 10:43 | 54.21145 | -1.37763 | 93 ft | 53 kts | 213° |
| 2026-04-12 10:44 | 54.20964 | -1.37875 | 90 ft | 12 kts | 271° |
| 2026-04-12 10:44 | 54.21063 | -1.37838 | 91 ft | 23 kts | 21° |
| 2026-04-12 10:44 | 54.21141 | -1.37883 | 93 ft | 15 kts | 260° |
| 2026-04-12 10:44 | 54.21152 | -1.38011 | 92 ft | 14 kts | 353° |
| 2026-04-12 10:45 | 54.21266 | -1.37984 | 95 ft | 20 kts | 32° |
| 2026-04-12 10:45 | 54.21322 | -1.37824 | 94 ft | 0 kts | 80° |
| 2026-04-12 10:46 | 54.21316 | -1.37680 | 95 ft | 17 kts | 131° |
| 2026-04-12 10:46 | 54.21277 | -1.37677 | 95 ft | 6 kts | 202° |
| 2026-04-12 10:47 | 54.21025 | -1.37858 | 92 ft | 69 kts | 205° |
| 2026-04-12 10:47 | 54.20519 | -1.38233 | 391 ft | 79 kts | 218° |
| 2026-04-12 10:47 | 54.20246 | -1.39048 | 783 ft | 82 kts | 240° |
| 2026-04-12 10:47 | 54.19988 | -1.39956 | 1118 ft | 89 kts | 237° |
| 2026-04-12 10:48 | 54.19656 | -1.40971 | 1159 ft | 103 kts | 236° |
| 2026-04-12 10:48 | 54.19265 | -1.42028 | 1157 ft | 106 kts | 232° |
| 2026-04-12 10:48 | 54.18802 | -1.42984 | 1179 ft | 102 kts | 226° |
| 2026-04-12 10:48 | 54.18284 | -1.43771 | 1038 ft | 99 kts | 217° |
| 2026-04-12 10:49 | 54.17725 | -1.44399 | 867 ft | 99 kts | 211° |
| 2026-04-12 10:49 | 54.17059 | -1.44320 | 627 ft | 98 kts | 168° |
| 2026-04-12 10:49 | 54.16469 | -1.43911 | 633 ft | 85 kts | 168° |
| 2026-04-12 10:49 | 54.15972 | -1.43619 | 551 ft | 72 kts | 173° |
| 2026-04-12 10:50 | 54.15509 | -1.43453 | 480 ft | 66 kts | 179° |
| 2026-04-12 10:50 | 54.15043 | -1.43230 | 397 ft | 74 kts | 169° |
| 2026-04-12 10:50 | 54.14575 | -1.42810 | 281 ft | 76 kts | 166° |
| 2026-04-12 10:50 | 54.14107 | -1.42386 | 132 ft | 72 kts | 163° |
| 2026-04-12 10:51 | 54.13773 | -1.42096 | 121 ft | 27 kts | 152° |
| 2026-04-12 10:51 | 54.13666 | -1.41965 | 118 ft | 18 kts | 99° |
| 2026-04-12 10:51 | 54.13694 | -1.41902 | 118 ft | 0 kts | 182° |
| 2026-04-12 10:52 | 54.13673 | -1.41936 | 118 ft | 12 kts | 270° |
| 2026-04-12 10:52 | 54.13755 | -1.42090 | 119 ft | 24 kts | 324° |
| 2026-04-12 10:52 | 54.13937 | -1.42268 | 122 ft | 35 kts | 332° |
| 2026-04-12 10:52 | 54.14148 | -1.42471 | 124 ft | 24 kts | 331° |
| 2026-04-12 10:53 | 54.14166 | -1.42454 | 126 ft | 4 kts | 151° |
| 2026-04-12 10:53 | 54.13943 | -1.42257 | 124 ft | 72 kts | 158° |
| 2026-04-12 10:53 | 54.13414 | -1.41684 | 330 ft | 95 kts | 156° |
| 2026-04-12 10:53 | 54.12849 | -1.41301 | 778 ft | 86 kts | 179° |
| 2026-04-12 10:54 | 54.12247 | -1.41112 | 1105 ft | 98 kts | 178° |
| 2026-04-12 10:54 | 54.11477 | -1.41021 | 1097 ft | 120 kts | 183° |
| 2026-04-12 10:54 | 54.10607 | -1.40968 | 1118 ft | 131 kts | 179° |
| 2026-04-12 10:54 | 54.09698 | -1.40531 | 1122 ft | 141 kts | 164° |
| 2026-04-12 10:55 | 54.08778 | -1.39892 | 1122 ft | 143 kts | 164° |
| 2026-04-12 10:55 | 54.07846 | -1.39250 | 1119 ft | 146 kts | 165° |
| 2026-04-12 10:55 | 54.06917 | -1.38585 | 1120 ft | 147 kts | 164° |
| 2026-04-12 10:55 | 54.05977 | -1.37893 | 1123 ft | 147 kts | 164° |
| 2026-04-12 10:56 | 54.05023 | -1.37198 | 1113 ft | 151 kts | 164° |
| 2026-04-12 10:56 | 54.04929 | -1.37130 | 1111 ft | 151 kts | 164° |
| 2026-04-12 10:56 | 54.03955 | -1.36445 | 1120 ft | 153 kts | 164° |
| 2026-04-12 10:56 | 54.02976 | -1.35753 | 1115 ft | 152 kts | 164° |
| 2026-04-12 10:57 | 54.02008 | -1.35074 | 1116 ft | 149 kts | 164° |
| 2026-04-12 10:57 | 54.01052 | -1.34400 | 1114 ft | 148 kts | 164° |
| 2026-04-12 10:57 | 54.00101 | -1.33724 | 1113 ft | 148 kts | 164° |
| 2026-04-12 10:57 | 53.99155 | -1.33049 | 1111 ft | 147 kts | 164° |
| 2026-04-12 10:58 | 53.98220 | -1.32376 | 1117 ft | 146 kts | 164° |
| 2026-04-12 10:58 | 53.97296 | -1.31688 | 1323 ft | 143 kts | 164° |
| 2026-04-12 10:58 | 53.96392 | -1.31026 | 1589 ft | 140 kts | 164° |
| 2026-04-12 10:58 | 53.95494 | -1.30388 | 1860 ft | 139 kts | 164° |
| 2026-04-12 10:59 | 53.94606 | -1.29748 | 2100 ft | 138 kts | 164° |
| 2026-04-12 10:59 | 53.93718 | -1.29104 | 2274 ft | 141 kts | 164° |
| 2026-04-12 10:59 | 53.92793 | -1.28443 | 2185 ft | 146 kts | 164° |
| 2026-04-12 10:59 | 53.91864 | -1.27814 | 2158 ft | 143 kts | 171° |
| 2026-04-12 11:00 | 53.90918 | -1.27388 | 2155 ft | 139 kts | 173° |
| 2026-04-12 11:00 | 53.89982 | -1.26979 | 2151 ft | 138 kts | 173° |
| 2026-04-12 11:00 | 53.89049 | -1.26583 | 2157 ft | 139 kts | 173° |
| 2026-04-12 11:00 | 53.88110 | -1.26196 | 2161 ft | 140 kts | 173° |
| 2026-04-12 11:01 | 53.87163 | -1.25814 | 2150 ft | 140 kts | 173° |
| 2026-04-12 11:01 | 53.86219 | -1.25428 | 2155 ft | 138 kts | 173° |
| 2026-04-12 11:01 | 53.85283 | -1.25046 | 2158 ft | 139 kts | 173° |
| 2026-04-12 11:01 | 53.84341 | -1.24670 | 2159 ft | 139 kts | 173° |
| 2026-04-12 11:02 | 53.83403 | -1.24293 | 2156 ft | 138 kts | 173° |
| 2026-04-12 11:02 | 53.82469 | -1.23923 | 2151 ft | 135 kts | 177° |
| 2026-04-12 11:02 | 53.81552 | -1.23917 | 2193 ft | 131 kts | 188° |
| 2026-04-12 11:02 | 53.80625 | -1.24009 | 2174 ft | 135 kts | 188° |
| 2026-04-12 11:03 | 53.79692 | -1.24092 | 2143 ft | 135 kts | 184° |
| 2026-04-12 11:03 | 53.78766 | -1.24011 | 2184 ft | 135 kts | 177° |
| 2026-04-12 11:03 | 53.77866 | -1.23440 | 2236 ft | 137 kts | 155° |
| 2026-04-12 11:03 | 53.77228 | -1.22223 | 2217 ft | 153 kts | 112° |
| 2026-04-12 11:04 | 53.77511 | -1.20473 | 2251 ft | 161 kts | 43° |
| 2026-04-12 11:04 | 53.78561 | -1.20121 | 2075 ft | 160 kts | 335° |
| 2026-04-12 11:04 | 53.79526 | -1.21024 | 1870 ft | 156 kts | 324° |
| 2026-04-12 11:04 | 53.80389 | -1.21950 | 1708 ft | 134 kts | 304° |
| 2026-04-12 11:05 | 53.80330 | -1.23133 | 1580 ft | 104 kts | 207° |
| 2026-04-12 11:05 | 53.79563 | -1.22995 | 1168 ft | 122 kts | 172° |
| 2026-04-12 11:05 | 53.78800 | -1.22458 | 1054 ft | 118 kts | 155° |
| 2026-04-12 11:05 | 53.78145 | -1.21646 | 1009 ft | 114 kts | 151° |
| 2026-04-12 11:06 | 53.77563 | -1.20800 | 1081 ft | 109 kts | 148° |
| 2026-04-12 11:06 | 53.77151 | -1.19743 | 1158 ft | 118 kts | 104° |
| 2026-04-12 11:06 | 53.77452 | -1.18430 | 1141 ft | 125 kts | 56° |
| 2026-04-12 11:06 | 53.77987 | -1.17312 | 1149 ft | 120 kts | 50° |
| 2026-04-12 11:07 | 53.78602 | -1.16419 | 1149 ft | 110 kts | 10° |
| 2026-04-12 11:07 | 53.79286 | -1.16655 | 970 ft | 107 kts | 324° |
| 2026-04-12 11:07 | 53.79931 | -1.17241 | 870 ft | 99 kts | 311° |
| 2026-04-12 11:07 | 53.80141 | -1.18131 | 666 ft | 82 kts | 255° |
| 2026-04-12 11:08 | 53.79945 | -1.18996 | 464 ft | 72 kts | 239° |
| 2026-04-12 11:08 | 53.79631 | -1.19630 | 295 ft | 68 kts | 231° |
| 2026-04-12 11:08 | 53.79380 | -1.20310 | 246 ft | 69 kts | 235° |
| 2026-04-12 11:08 | 53.79130 | -1.20957 | 136 ft | 65 kts | 232° |
| 2026-04-12 11:09 | 53.78903 | -1.21597 | 46 ft | 56 kts | 235° |
| 2026-04-12 11:09 | 53.78731 | -1.22045 | 42 ft | 38 kts | 240° |
| 2026-04-12 11:09 | 53.78614 | -1.22322 | 40 ft | 16 kts | 187° |
| 2026-04-12 11:09 | 53.78535 | -1.22278 | 41 ft | 14 kts | 104° |
| 2026-04-12 11:10 | 53.78503 | -1.22054 | 37 ft | 26 kts | 102° |
| 2026-04-12 11:10 | 53.78454 | -1.21700 | 35 ft | 33 kts | 103° |
| 2026-04-12 11:10 | 53.78410 | -1.21376 | 36 ft | 12 kts | 92° |
| 2026-04-12 11:10 | 53.78476 | -1.21324 | 37 ft | 13 kts | 5° |
| 2026-04-12 11:11 | 53.78578 | -1.21292 | 37 ft | 19 kts | 15° |
| 2026-04-12 11:11 | 53.78732 | -1.21261 | 37 ft | 23 kts | 8° |
| 2026-04-12 11:11 | 53.78829 | -1.21158 | 32 ft | 16 kts | 47° |
| 2026-04-12 11:11 | 53.78898 | -1.21070 | 31 ft | 10 kts | 61° |
| 2026-04-12 11:12 | 53.78888 | -1.21037 | 31 ft | 0 kts | 156° |